| time (UTC) | temp C | wind direction | speed KPH | gust KPH | rain 1hr cm | rain 24hr cm | rain mn cm | humidity % | barometer mb |
| 20260906084531 | 28 | 50 | 3.2 | 9.7 | 0.00 | 0.00 | 0.00 | 54 | 1021.4 |
| 20260906083021 | 27 | 360 | 4.8 | 9.7 | 0.00 | 0.00 | 0.00 | 54 | 1021.4 |
| 20260906081517 | 27 | 41 | 6.4 | 11.3 | 0.00 | 0.00 | 0.00 | 54 | 1021.3 |
| 20260906080014 | 26 | 22 | 4.8 | 9.7 | 0.00 | 0.00 | 0.00 | 55 | 1021.2 |
| 20260906074511 | 26 | 27 | 4.8 | 9.7 | 0.00 | 0.00 | 0.00 | 56 | 1021.1 |
| 20260906073006 | 25 | 43 | 6.4 | 11.3 | 0.00 | 0.00 | 0.00 | 56 | 1021.0 |
| 20260906071504 | 25 | 355 | 4.8 | 12.9 | 0.00 | 0.00 | 0.00 | 58 | 1021.0 |
| 20260906070004 | 24 | 351 | 4.8 | 9.7 | 0.00 | 0.00 | 0.00 | 60 | 1020.9 |
| 20260906064507 | 23 | 360 | 4.8 | 9.7 | 0.00 | 0.00 | 0.00 | 60 | 1020.7 |
| 20260906063100 | 23 | 5 | 3.2 | 8.0 | 0.00 | 0.00 | 0.00 | 63 | 1020.7 |
| 20260906061556 | 22 | 41 | 4.8 | 9.7 | 0.00 | 0.00 | 0.00 | 63 | 1020.6 |
| 20260906060138 | 22 | 34 | 4.8 | 8.0 | 0.00 | 0.00 | 0.00 | 63 | 1020.4 |
| 20260906054553 | 22 | 35 | 3.2 | 9.7 | 0.00 | 0.00 | 0.00 | 64 | 1020.1 |
| 20260906053050 | 21 | 41 | 4.8 | 9.7 | 0.00 | 0.00 | 0.00 | 64 | 1020.0 |
| 20260906051546 | 21 | 355 | 4.8 | 6.4 | 0.00 | 0.00 | 0.00 | 64 | 1019.7 |
| 20260906050046 | 21 | 355 | 4.8 | 6.4 | 0.00 | 0.00 | 0.00 | 64 | 1019.5 |
| 20260906044544 | 22 | 5 | 3.2 | 8.0 | 0.00 | 0.00 | 0.00 | 62 | 1019.3 |
| 20260906043041 | 21 | 22 | 8.0 | 12.9 | 0.00 | 0.00 | 0.00 | 64 | 1019.1 |
| 20260906041539 | 21 | 347 | 4.8 | 8.0 | 0.00 | 0.00 | 0.00 | 64 | 1019.1 |
| 20260906040041 | 21 | 355 | 4.8 | 9.7 | 0.00 | 0.00 | 0.00 | 63 | 1019.0 |
| 20260906034541 | 21 | 345 | 4.8 | 9.7 | 0.00 | 0.00 | 0.00 | 63 | 1019.0 |
| 20260906033036 | 21 | 36 | 4.8 | 9.7 | 0.00 | 0.00 | 0.00 | 62 | 1018.9 |
| 20260906031603 | 21 | 360 | 4.8 | 11.3 | 0.00 | 0.00 | 0.00 | 63 | 1018.8 |
| 20260906030034 | 21 | 5 | 6.4 | 9.7 | 0.00 | 0.00 | 0.00 | 64 | 1018.8 |
| 20260906024538 | 21 | 37 | 4.8 | 8.0 | 0.00 | 0.00 | 0.00 | 65 | 1018.6 |
| 20260906023036 | 21 | 355 | 3.2 | 8.0 | 0.00 | 0.00 | 0.00 | 65 | 1018.6 |
| 20260906021529 | 21 | 44 | 4.8 | 9.7 | 0.00 | 0.00 | 0.00 | 65 | 1018.5 |
| 20260906020027 | 21 | 10 | 4.8 | 8.0 | 0.00 | 0.00 | 0.00 | 64 | 1018.4 |
| 20260906014526 | 21 | 20 | 3.2 | 8.0 | 0.00 | 0.00 | 0.00 | 62 | 1018.2 |
| 20260906013023 | 22 | 355 | 4.8 | 6.4 | 0.00 | 0.00 | 0.00 | 61 | 1018.2 |
| 20260906011521 | 22 | 42 | 4.8 | 8.0 | 0.00 | 0.00 | 0.00 | 59 | 1018.1 |
| 20260906010017 | 23 | 34 | 3.2 | 8.0 | 0.00 | 0.00 | 0.00 | 56 | 1018.1 |
| 20260906004514 | 23 | 31 | 6.4 | 9.7 | 0.00 | 0.00 | 0.00 | 57 | 1017.9 |
| 20260906003015 | 25 | 36 | 1.6 | 8.0 | 0.00 | 0.00 | 0.00 | 51 | 1018.0 |
| 20260906001514 | 25 | 94 | 9.7 | 16.1 | 0.00 | 0.00 | 0.00 | 51 | 1018.1 |
| 20260906000012 | 23 | 126 | 1.6 | 6.4 | 0.00 | 0.00 | 0.00 | 56 | 1017.9 |
| 20260905234509 | 23 | 19 | 1.6 | 4.8 | 0.00 | 0.00 | 0.00 | 55 | 1017.7 |
| 20260905233007 | 24 | 37 | 1.6 | 4.8 | 0.00 | 0.00 | 0.00 | 53 | 1017.7 |
| 20260905231505 | 24 | 355 | 3.2 | 6.4 | 0.00 | 0.00 | 0.00 | 53 | 1017.6 |
| 20260905230004 | 24 | 17 | 3.2 | 6.4 | 0.00 | 0.00 | 0.00 | 54 | 1017.6 |
| 20260905224503 | 24 | 12 | 4.8 | 12.9 | 0.00 | 0.00 | 0.00 | 54 | 1017.4 |
| 20260905223001 | 24 | 34 | 4.8 | 9.7 | 0.00 | 0.00 | 0.00 | 54 | 1017.3 |
| 20260905221612 | 25 | 350 | 6.4 | 12.9 | 0.00 | 0.00 | 0.00 | 54 | 1017.1 |
| 20260905220052 | 27 | 360 | 4.8 | 20.9 | 0.00 | 0.00 | 0.00 | 46 | 1017.2 |
| 20260905214558 | 26 | 46 | 4.8 | 8.0 | 0.00 | 0.00 | 0.00 | 50 | 1017.1 |
| 20260905213048 | 26 | 33 | 6.4 | 16.1 | 0.00 | 0.00 | 0.00 | 48 | 1017.0 |
| 20260905211549 | 25 | 355 | 4.8 | 9.7 | 0.00 | 0.00 | 0.00 | 55 | 1017.0 |
| 20260905210053 | 25 | 355 | 6.4 | 12.9 | 0.00 | 0.00 | 0.00 | 60 | 1016.8 |
| 20260905204544 | 24 | 355 | 4.8 | 8.0 | 0.00 | 0.00 | 0.00 | 66 | 1016.7 |
| 20260905203043 | 24 | 35 | 3.2 | 6.4 | 0.00 | 0.00 | 0.00 | 72 | 1016.6 |
| 20260905201542 | 24 | 355 | 3.2 | 6.4 | 0.00 | 0.00 | 0.00 | 75 | 1016.5 |
| 20260905200044 | 25 | 349 | 4.8 | 9.7 | 0.00 | 0.00 | 0.00 | 75 | 1016.4 |
| 20260905194539 | 25 | 44 | 4.8 | 9.7 | 0.00 | 0.00 | 0.00 | 73 | 1016.3 |
| 20260905193042 | 25 | 30 | 6.4 | 9.7 | 0.00 | 0.00 | 0.00 | 73 | 1016.2 |
| 20260905191536 | 25 | 54 | 6.4 | 14.5 | 0.00 | 0.00 | 0.00 | 72 | 1016.0 |
| 20260905190044 | 26 | 347 | 4.8 | 9.7 | 0.00 | 0.00 | 0.00 | 73 | 1015.8 |
| 20260905184536 | 26 | 43 | 4.8 | 8.0 | 0.00 | 0.00 | 0.00 | 72 | 1015.6 |
| 20260905183035 | 27 | 38 | 0.0 | 9.7 | 0.00 | 0.00 | 0.00 | 71 | 1015.4 |
| 20260905181535 | 27 | 42 | 4.8 | 8.0 | 0.00 | 0.00 | 0.00 | 69 | 1015.2 |
| 20260905180048 | 28 | 39 | 3.2 | 6.4 | 0.00 | 0.00 | 0.00 | 65 | 1015.0 |
| 20260905174533 | 30 | 307 | 1.6 | 3.2 | 0.00 | 0.00 | 0.00 | 60 | 1014.9 |
| 20260905173032 | 30 | 301 | 1.6 | 4.8 | 0.00 | 0.00 | 0.00 | 59 | 1014.7 |
| 20260905171547 | 31 | 298 | 0.0 | 0.0 | 0.00 | 0.00 | 0.00 | 54 | 1014.6 |
| 20260905170031 | 31 | 298 | 0.0 | 1.6 | 0.00 | 0.00 | 0.00 | 56 | 1014.7 |
| 20260905164531 | 31 | 298 | 1.6 | 6.4 | 0.00 | 0.00 | 0.00 | 56 | 1014.7 |
| 20260905163030 | 31 | 327 | 0.0 | 3.2 | 0.00 | 0.00 | 0.00 | 54 | 1014.5 |
| 20260905161529 | 31 | 246 | 1.6 | 6.4 | 0.00 | 0.00 | 0.00 | 54 | 1014.6 |
| 20260905160047 | 31 | 248 | 1.6 | 4.8 | 0.00 | 0.00 | 0.00 | 56 | 1014.5 |
| 20260905154529 | 31 | 302 | 1.6 | 8.0 | 0.00 | 0.00 | 0.00 | 56 | 1014.6 |
| 20260905153033 | 31 | 250 | 3.2 | 14.5 | 0.00 | 0.00 | 0.00 | 55 | 1014.5 |
| 20260905151528 | 31 | 263 | 4.8 | 12.9 | 0.00 | 0.00 | 0.00 | 54 | 1014.6 |
| 20260905150027 | 31 | 217 | 3.2 | 8.0 | 0.00 | 0.00 | 0.00 | 55 | 1014.5 |
| 20260905144529 | 31 | 265 | 6.4 | 14.5 | 0.00 | 0.00 | 0.00 | 54 | 1014.7 |
| 20260905143025 | 31 | 243 | 6.4 | 11.3 | 0.00 | 0.00 | 0.00 | 53 | 1014.6 |
| 20260905141525 | 32 | 257 | 8.0 | 12.9 | 0.00 | 0.00 | 0.00 | 52 | 1014.7 |
| 20260905140023 | 32 | 300 | 4.8 | 14.5 | 0.00 | 0.00 | 0.00 | 51 | 1014.8 |
| 20260905134521 | 31 | 263 | 9.7 | 16.1 | 0.00 | 0.00 | 0.00 | 51 | 1014.8 |
| 20260905133025 | 31 | 252 | 4.8 | 11.3 | 0.00 | 0.00 | 0.00 | 52 | 1014.9 |
| 20260905131521 | 32 | 223 | 3.2 | 11.3 | 0.00 | 0.00 | 0.00 | 52 | 1015.2 |
| 20260905130019 | 32 | 217 | 3.2 | 9.7 | 0.00 | 0.00 | 0.00 | 54 | 1015.3 |
| 20260905124517 | 31 | 279 | 3.2 | 9.7 | 0.00 | 0.00 | 0.00 | 53 | 1015.3 |
| 20260905123014 | 31 | 241 | 1.6 | 11.3 | 0.00 | 0.00 | 0.00 | 56 | 1015.4 |
| 20260905121512 | 31 | 207 | 1.6 | 12.9 | 0.00 | 0.00 | 0.00 | 55 | 1015.5 |
| 20260905120023 | 30 | 294 | 6.4 | 14.5 | 0.00 | 0.00 | 0.00 | 56 | 1015.6 |
| 20260905114509 | 30 | 236 | 4.8 | 12.9 | 0.00 | 0.00 | 0.00 | 56 | 1015.7 |
| 20260905113007 | 30 | 240 | 4.8 | 12.9 | 0.00 | 0.00 | 0.00 | 57 | 1015.8 |
| 20260905111505 | 30 | 245 | 3.2 | 11.3 | 0.00 | 0.00 | 0.00 | 58 | 1015.8 |
| 20260905110011 | 29 | 250 | 1.6 | 9.7 | 0.00 | 0.00 | 0.00 | 57 | 1015.8 |
| 20260905104505 | 29 | 305 | 3.2 | 14.5 | 0.00 | 0.00 | 0.00 | 59 | 1015.8 |
| 20260905103104 | 28 | 298 | 4.8 | 14.5 | 0.00 | 0.00 | 0.00 | 63 | 1015.9 |
| 20260905101601 | 28 | 238 | 4.8 | 11.3 | 0.00 | 0.00 | 0.00 | 60 | 1016.0 |
| 20260905100100 | 28 | 256 | 3.2 | 11.3 | 0.00 | 0.00 | 0.00 | 61 | 1016.0 |
| 20260905094555 | 27 | 319 | 4.8 | 11.3 | 0.00 | 0.00 | 0.00 | 62 | 1016.1 |
| 20260905093107 | 27 | 232 | 3.2 | 8.0 | 0.00 | 0.00 | 0.00 | 62 | 1016.0 |
| 20260905091554 | 27 | 306 | 1.6 | 6.4 | 0.00 | 0.00 | 0.00 | 60 | 1016.0 |
| 20260905090047 | 26 | 295 | 1.6 | 4.8 | 0.00 | 0.00 | 0.00 | 65 | 1016.1 |